sensor_id;sensor_type;location;lat;lon;timestamp;P1;P2;P0
46885;PMS5003;32622;48.202;11.326;2023-05-15T00:01:36;16;16;
46885;PMS5003;32622;48.202;11.326;2023-05-15T00:04:00;16;16;
46885;PMS5003;32622;48.202;11.326;2023-05-15T00:06:04;16;16;
46885;PMS5003;32622;48.202;11.326;2023-05-15T00:08:07;16;16;
46885;PMS5003;32622;48.202;11.326;2023-05-15T00:10:11;16;16;
46885;PMS5003;32622;48.202;11.326;2023-05-15T00:12:16;16;16;
46885;PMS5003;32622;48.202;11.326;2023-05-15T00:14:19;16;16;
46885;PMS5003;32622;48.202;11.326;2023-05-15T00:16:24;16;16;
46885;PMS5003;32622;48.202;11.326;2023-05-15T00:18:28;16;16;
46885;PMS5003;32622;48.202;11.326;2023-05-15T00:20:36;16;16;
46885;PMS5003;32622;48.202;11.326;2023-05-15T00:22:42;16;16;
46885;PMS5003;32622;48.202;11.326;2023-05-15T00:24:47;16;16;
46885;PMS5003;32622;48.202;11.326;2023-05-15T00:26:52;16;16;
46885;PMS5003;32622;48.202;11.326;2023-05-15T00:28:58;16;16;
46885;PMS5003;32622;48.202;11.326;2023-05-15T00:31:02;16;16;
46885;PMS5003;32622;48.202;11.326;2023-05-15T00:33:06;16;16;
46885;PMS5003;32622;48.202;11.326;2023-05-15T00:35:10;17;16;
46885;PMS5003;32622;48.202;11.326;2023-05-15T00:37:14;17;16;
46885;PMS5003;32622;48.202;11.326;2023-05-15T00:39:17;17;16;
46885;PMS5003;32622;48.202;11.326;2023-05-15T00:41:22;17;16;
46885;PMS5003;32622;48.202;11.326;2023-05-15T00:43:26;17;16;
46885;PMS5003;32622;48.202;11.326;2023-05-15T00:45:33;17;16;
46885;PMS5003;32622;48.202;11.326;2023-05-15T00:47:44;17;16;
46885;PMS5003;32622;48.202;11.326;2023-05-15T00:49:51;17;16;
46885;PMS5003;32622;48.202;11.326;2023-05-15T00:51:58;17;16;
46885;PMS5003;32622;48.202;11.326;2023-05-15T00:54:02;17;16;
46885;PMS5003;32622;48.202;11.326;2023-05-15T00:56:08;17;16;
46885;PMS5003;32622;48.202;11.326;2023-05-15T00:58:15;17;16;
46885;PMS5003;32622;48.202;11.326;2023-05-15T01:00:22;16;15;
46885;PMS5003;32622;48.202;11.326;2023-05-15T01:02:29;16;15;
46885;PMS5003;32622;48.202;11.326;2023-05-15T01:04:40;16;15;
46885;PMS5003;32622;48.202;11.326;2023-05-15T01:06:47;15;14;
46885;PMS5003;32622;48.202;11.326;2023-05-15T01:08:56;15;14;
46885;PMS5003;32622;48.202;11.326;2023-05-15T01:11:03;15;14;
46885;PMS5003;32622;48.202;11.326;2023-05-15T01:13:08;15;14;
46885;PMS5003;32622;48.202;11.326;2023-05-15T01:15:15;15;14;
46885;PMS5003;32622;48.202;11.326;2023-05-15T01:17:19;15;14;
46885;PMS5003;32622;48.202;11.326;2023-05-15T01:19:22;16;14;
46885;PMS5003;32622;48.202;11.326;2023-05-15T01:21:31;16;14;
46885;PMS5003;32622;48.202;11.326;2023-05-15T01:23:54;15;13;
46885;PMS5003;32622;48.202;11.326;2023-05-15T01:26:20;15;14;
46885;PMS5003;32622;48.202;11.326;2023-05-15T01:28:38;15;14;
46885;PMS5003;32622;48.202;11.326;2023-05-15T01:30:48;15;14;
46885;PMS5003;32622;48.202;11.326;2023-05-15T01:32:57;15;14;
46885;PMS5003;32622;48.202;11.326;2023-05-15T01:35:09;15;14;
46885;PMS5003;32622;48.202;11.326;2023-05-15T01:37:21;15;14;
46885;PMS5003;32622;48.202;11.326;2023-05-15T01:39:31;16;16;
46885;PMS5003;32622;48.202;11.326;2023-05-15T01:41:43;16;16;
46885;PMS5003;32622;48.202;11.326;2023-05-15T01:43:55;16;16;
46885;PMS5003;32622;48.202;11.326;2023-05-15T01:46:02;15;15;
46885;PMS5003;32622;48.202;11.326;2023-05-15T01:48:07;14;14;
46885;PMS5003;32622;48.202;11.326;2023-05-15T01:50:13;14;14;
46885;PMS5003;32622;48.202;11.326;2023-05-15T01:52:21;15;15;
46885;PMS5003;32622;48.202;11.326;2023-05-15T01:54:30;16;16;
46885;PMS5003;32622;48.202;11.326;2023-05-15T01:56:35;16;16;
46885;PMS5003;32622;48.202;11.326;2023-05-15T01:58:39;16;16;
46885;PMS5003;32622;48.202;11.326;2023-05-15T02:00:44;16;16;
46885;PMS5003;32622;48.202;11.326;2023-05-15T02:02:53;16;16;
46885;PMS5003;32622;48.202;11.326;2023-05-15T02:05:00;17;17;
46885;PMS5003;32622;48.202;11.326;2023-05-15T02:07:04;17;17;
46885;PMS5003;32622;48.202;11.326;2023-05-15T02:09:09;17;17;
46885;PMS5003;32622;48.202;11.326;2023-05-15T02:11:13;17;17;
46885;PMS5003;32622;48.202;11.326;2023-05-15T02:13:17;17;17;
46885;PMS5003;32622;48.202;11.326;2023-05-15T02:15:23;17;17;
46885;PMS5003;32622;48.202;11.326;2023-05-15T02:17:29;19;17;
46885;PMS5003;32622;48.202;11.326;2023-05-15T02:19:33;19;17;
46885;PMS5003;32622;48.202;11.326;2023-05-15T02:21:37;19;17;
46885;PMS5003;32622;48.202;11.326;2023-05-15T02:23:41;19;18;
46885;PMS5003;32622;48.202;11.326;2023-05-15T02:25:46;19;18;
46885;PMS5003;32622;48.202;11.326;2023-05-15T02:28:01;19;18;
46885;PMS5003;32622;48.202;11.326;2023-05-15T02:30:13;20;18;
46885;PMS5003;32622;48.202;11.326;2023-05-15T02:32:26;20;18;
46885;PMS5003;32622;48.202;11.326;2023-05-15T02:34:43;20;18;
46885;PMS5003;32622;48.202;11.326;2023-05-15T02:36:53;19;18;
46885;PMS5003;32622;48.202;11.326;2023-05-15T02:39:01;19;18;
46885;PMS5003;32622;48.202;11.326;2023-05-15T02:41:05;19;18;
46885;PMS5003;32622;48.202;11.326;2023-05-15T02:43:11;18;17;
46885;PMS5003;32622;48.202;11.326;2023-05-15T02:45:16;18;17;
46885;PMS5003;32622;48.202;11.326;2023-05-15T02:47:20;18;17;
46885;PMS5003;32622;48.202;11.326;2023-05-15T02:49:24;19;17;
46885;PMS5003;32622;48.202;11.326;2023-05-15T02:51:28;19;17;
46885;PMS5003;32622;48.202;11.326;2023-05-15T02:53:32;19;17;
46885;PMS5003;32622;48.202;11.326;2023-05-15T02:55:42;18;16;
46885;PMS5003;32622;48.202;11.326;2023-05-15T02:57:46;18;16;
46885;PMS5003;32622;48.202;11.326;2023-05-15T02:59:51;18;16;
46885;PMS5003;32622;48.202;11.326;2023-05-15T03:01:56;18;16;
46885;PMS5003;32622;48.202;11.326;2023-05-15T03:04:02;18;16;
46885;PMS5003;32622;48.202;11.326;2023-05-15T03:06:07;18;16;
46885;PMS5003;32622;48.202;11.326;2023-05-15T03:08:12;18;16;
46885;PMS5003;32622;48.202;11.326;2023-05-15T03:10:17;18;16;
46885;PMS5003;32622;48.202;11.326;2023-05-15T03:12:21;18;16;
46885;PMS5003;32622;48.202;11.326;2023-05-15T03:14:24;17;16;
46885;PMS5003;32622;48.202;11.326;2023-05-15T03:16:35;17;16;
46885;PMS5003;32622;48.202;11.326;2023-05-15T03:18:40;17;16;
46885;PMS5003;32622;48.202;11.326;2023-05-15T03:20:51;14;14;
46885;PMS5003;32622;48.202;11.326;2023-05-15T03:23:04;14;14;
46885;PMS5003;32622;48.202;11.326;2023-05-15T03:40:40;14;14;
46885;PMS5003;32622;48.202;11.326;2023-05-15T03:42:53;15;15;
46885;PMS5003;32622;48.202;11.326;2023-05-15T03:53:31;15;13;
46885;PMS5003;32622;48.202;11.326;2023-05-15T03:55:35;15;13;
46885;PMS5003;32622;48.202;11.326;2023-05-15T03:57:39;15;13;
46885;PMS5003;32622;48.202;11.326;2023-05-15T03:59:42;15;13;
46885;PMS5003;32622;48.202;11.326;2023-05-15T04:01:46;15;13;
46885;PMS5003;32622;48.202;11.326;2023-05-15T04:03:49;15;14;
46885;PMS5003;32622;48.202;11.326;2023-05-15T04:05:53;15;14;
46885;PMS5003;32622;48.202;11.326;2023-05-15T04:07:58;15;14;
46885;PMS5003;32622;48.202;11.326;2023-05-15T04:10:01;14;13;
46885;PMS5003;32622;48.202;11.326;2023-05-15T04:12:06;14;13;
46885;PMS5003;32622;48.202;11.326;2023-05-15T04:14:09;14;13;
46885;PMS5003;32622;48.202;11.326;2023-05-15T04:16:13;13;12;
46885;PMS5003;32622;48.202;11.326;2023-05-15T04:18:17;13;12;
46885;PMS5003;32622;48.202;11.326;2023-05-15T04:20:20;13;12;
46885;PMS5003;32622;48.202;11.326;2023-05-15T04:22:30;13;12;
46885;PMS5003;32622;48.202;11.326;2023-05-15T04:24:34;13;12;
46885;PMS5003;32622;48.202;11.326;2023-05-15T04:26:37;13;12;
46885;PMS5003;32622;48.202;11.326;2023-05-15T04:28:40;12;11;
46885;PMS5003;32622;48.202;11.326;2023-05-15T04:30:44;12;11;
46885;PMS5003;32622;48.202;11.326;2023-05-15T04:33:09;12;11;
46885;PMS5003;32622;48.202;11.326;2023-05-15T04:36:12;14;13;
46885;PMS5003;32622;48.202;11.326;2023-05-15T04:38:15;14;13;
46885;PMS5003;32622;48.202;11.326;2023-05-15T04:40:19;14;13;
46885;PMS5003;32622;48.202;11.326;2023-05-15T04:42:24;14;13;
46885;PMS5003;32622;48.202;11.326;2023-05-15T04:44:30;14;13;
46885;PMS5003;32622;48.202;11.326;2023-05-15T04:46:37;13;13;
46885;PMS5003;32622;48.202;11.326;2023-05-15T04:48:57;13;13;
46885;PMS5003;32622;48.202;11.326;2023-05-15T04:52:09;12;12;
46885;PMS5003;32622;48.202;11.326;2023-05-15T04:54:13;13;13;
46885;PMS5003;32622;48.202;11.326;2023-05-15T04:58:59;13;13;
46885;PMS5003;32622;48.202;11.326;2023-05-15T05:01:08;13;13;
46885;PMS5003;32622;48.202;11.326;2023-05-15T05:03:15;13;13;
46885;PMS5003;32622;48.202;11.326;2023-05-15T05:05:21;13;13;
46885;PMS5003;32622;48.202;11.326;2023-05-15T05:07:29;13;13;
46885;PMS5003;32622;48.202;11.326;2023-05-15T05:09:34;13;13;
46885;PMS5003;32622;48.202;11.326;2023-05-15T05:11:38;13;13;
46885;PMS5003;32622;48.202;11.326;2023-05-15T05:13:43;14;14;
46885;PMS5003;32622;48.202;11.326;2023-05-15T05:18:38;15;14;
46885;PMS5003;32622;48.202;11.326;2023-05-15T05:21:46;16;16;
46885;PMS5003;32622;48.202;11.326;2023-05-15T05:36:13;17;14;
46885;PMS5003;32622;48.202;11.326;2023-05-15T05:38:49;17;15;
46885;PMS5003;32622;48.202;11.326;2023-05-15T06:20:46;11;11;
46885;PMS5003;32622;48.202;11.326;2023-05-15T06:22:59;12;12;
46885;PMS5003;32622;48.202;11.326;2023-05-15T06:25:06;12;12;
46885;PMS5003;32622;48.202;11.326;2023-05-15T06:27:20;12;12;
46885;PMS5003;32622;48.202;11.326;2023-05-15T06:29:44;12;12;
46885;PMS5003;32622;48.202;11.326;2023-05-15T06:31:52;11;11;
46885;PMS5003;32622;48.202;11.326;2023-05-15T06:33:59;11;11;
46885;PMS5003;32622;48.202;11.326;2023-05-15T06:36:05;11;11;
46885;PMS5003;32622;48.202;11.326;2023-05-15T06:38:11;12;12;
46885;PMS5003;32622;48.202;11.326;2023-05-15T07:11:28;12;12;
46885;PMS5003;32622;48.202;11.326;2023-05-15T08:30:36;7;7;
46885;PMS5003;32622;48.202;11.326;2023-05-15T08:33:05;7;7;
46885;PMS5003;32622;48.202;11.326;2023-05-15T08:35:12;7;7;
46885;PMS5003;32622;48.202;11.326;2023-05-15T08:42:13;7;7;
46885;PMS5003;32622;48.202;11.326;2023-05-15T08:44:21;7;7;
46885;PMS5003;32622;48.202;11.326;2023-05-15T08:46:29;8;8;
46885;PMS5003;32622;48.202;11.326;2023-05-15T08:48:36;8;8;
46885;PMS5003;32622;48.202;11.326;2023-05-15T08:50:47;8;8;
46885;PMS5003;32622;48.202;11.326;2023-05-15T08:56:31;9;8;
46885;PMS5003;32622;48.202;11.326;2023-05-15T08:58:44;9;7;
46885;PMS5003;32622;48.202;11.326;2023-05-15T09:00:50;9;7;
46885;PMS5003;32622;48.202;11.326;2023-05-15T09:02:57;9;7;
46885;PMS5003;32622;48.202;11.326;2023-05-15T09:05:04;9;7;
46885;PMS5003;32622;48.202;11.326;2023-05-15T09:08:30;9;7;
46885;PMS5003;32622;48.202;11.326;2023-05-15T09:11:55;9;8;
46885;PMS5003;32622;48.202;11.326;2023-05-15T09:15:57;7;7;
46885;PMS5003;32622;48.202;11.326;2023-05-15T09:18:04;7;7;
46885;PMS5003;32622;48.202;11.326;2023-05-15T09:34:49;8;8;
46885;PMS5003;32622;48.202;11.326;2023-05-15T09:38:15;8;8;
46885;PMS5003;32622;48.202;11.326;2023-05-15T09:40:39;8;8;
46885;PMS5003;32622;48.202;11.326;2023-05-15T09:53:11;9;8;
46885;PMS5003;32622;48.202;11.326;2023-05-15T09:55:25;9;8;
46885;PMS5003;32622;48.202;11.326;2023-05-15T09:58:04;9;8;
46885;PMS5003;32622;48.202;11.326;2023-05-15T10:00:11;8;8;
46885;PMS5003;32622;48.202;11.326;2023-05-15T10:02:21;8;8;
46885;PMS5003;32622;48.202;11.326;2023-05-15T10:04:32;8;8;
46885;PMS5003;32622;48.202;11.326;2023-05-15T10:06:47;9;8;
46885;PMS5003;32622;48.202;11.326;2023-05-15T10:08:52;8;7;
46885;PMS5003;32622;48.202;11.326;2023-05-15T10:10:58;8;7;
46885;PMS5003;32622;48.202;11.326;2023-05-15T10:47:41;6;6;
46885;PMS5003;32622;48.202;11.326;2023-05-15T10:49:46;6;6;
46885;PMS5003;32622;48.202;11.326;2023-05-15T10:51:50;6;6;
46885;PMS5003;32622;48.202;11.326;2023-05-15T10:54:33;6;6;
46885;PMS5003;32622;48.202;11.326;2023-05-15T10:57:22;6;6;
46885;PMS5003;32622;48.202;11.326;2023-05-15T11:15:17;5;5;
46885;PMS5003;32622;48.202;11.326;2023-05-15T11:17:27;5;5;
46885;PMS5003;32622;48.202;11.326;2023-05-15T11:19:37;4;4;
46885;PMS5003;32622;48.202;11.326;2023-05-15T11:34:51;5;5;
46885;PMS5003;32622;48.202;11.326;2023-05-15T11:37:00;5;5;
46885;PMS5003;32622;48.202;11.326;2023-05-15T11:39:11;6;6;
46885;PMS5003;32622;48.202;11.326;2023-05-15T11:41:16;6;6;
46885;PMS5003;32622;48.202;11.326;2023-05-15T11:43:21;6;6;
46885;PMS5003;32622;48.202;11.326;2023-05-15T11:45:27;5;5;
46885;PMS5003;32622;48.202;11.326;2023-05-15T11:47:33;5;5;
46885;PMS5003;32622;48.202;11.326;2023-05-15T11:49:39;5;5;
46885;PMS5003;32622;48.202;11.326;2023-05-15T11:51:44;6;6;
46885;PMS5003;32622;48.202;11.326;2023-05-15T11:53:52;6;6;
46885;PMS5003;32622;48.202;11.326;2023-05-15T11:55:56;5;5;
46885;PMS5003;32622;48.202;11.326;2023-05-15T11:58:10;5;5;
46885;PMS5003;32622;48.202;11.326;2023-05-15T12:00:16;5;5;
46885;PMS5003;32622;48.202;11.326;2023-05-15T12:02:24;5;5;
46885;PMS5003;32622;48.202;11.326;2023-05-15T12:04:32;5;5;
46885;PMS5003;32622;48.202;11.326;2023-05-15T12:06:38;5;5;
46885;PMS5003;32622;48.202;11.326;2023-05-15T12:08:43;5;5;
46885;PMS5003;32622;48.202;11.326;2023-05-15T12:10:56;6;6;
46885;PMS5003;32622;48.202;11.326;2023-05-15T12:13:04;6;6;
46885;PMS5003;32622;48.202;11.326;2023-05-15T12:15:10;6;6;
46885;PMS5003;32622;48.202;11.326;2023-05-15T12:17:17;6;6;
46885;PMS5003;32622;48.202;11.326;2023-05-15T12:19:27;6;6;
46885;PMS5003;32622;48.202;11.326;2023-05-15T12:21:34;6;6;
46885;PMS5003;32622;48.202;11.326;2023-05-15T12:23:38;6;6;
46885;PMS5003;32622;48.202;11.326;2023-05-15T12:25:44;6;6;
46885;PMS5003;32622;48.202;11.326;2023-05-15T12:27:52;6;6;
46885;PMS5003;32622;48.202;11.326;2023-05-15T12:29:56;7;7;
46885;PMS5003;32622;48.202;11.326;2023-05-15T12:32:05;6;6;
46885;PMS5003;32622;48.202;11.326;2023-05-15T12:34:10;6;6;
46885;PMS5003;32622;48.202;11.326;2023-05-15T12:36:21;6;6;
46885;PMS5003;32622;48.202;11.326;2023-05-15T12:38:35;6;6;
46885;PMS5003;32622;48.202;11.326;2023-05-15T12:40:41;7;7;
46885;PMS5003;32622;48.202;11.326;2023-05-15T12:42:50;8;8;
46885;PMS5003;32622;48.202;11.326;2023-05-15T12:45:10;8;8;
46885;PMS5003;32622;48.202;11.326;2023-05-15T12:47:39;7;7;
46885;PMS5003;32622;48.202;11.326;2023-05-15T12:49:50;7;7;
46885;PMS5003;32622;48.202;11.326;2023-05-15T12:51:57;7;7;
46885;PMS5003;32622;48.202;11.326;2023-05-15T12:54:15;7;7;
46885;PMS5003;32622;48.202;11.326;2023-05-15T12:56:23;8;8;
46885;PMS5003;32622;48.202;11.326;2023-05-15T12:58:30;8;8;
46885;PMS5003;32622;48.202;11.326;2023-05-15T13:00:35;8;8;
46885;PMS5003;32622;48.202;11.326;2023-05-15T13:02:41;7;7;
46885;PMS5003;32622;48.202;11.326;2023-05-15T13:04:47;7;7;
46885;PMS5003;32622;48.202;11.326;2023-05-15T13:06:50;7;7;
46885;PMS5003;32622;48.202;11.326;2023-05-15T13:08:53;7;7;
46885;PMS5003;32622;48.202;11.326;2023-05-15T13:10:59;7;7;
46885;PMS5003;32622;48.202;11.326;2023-05-15T13:13:03;7;7;
46885;PMS5003;32622;48.202;11.326;2023-05-15T13:15:20;8;7;
46885;PMS5003;32622;48.202;11.326;2023-05-15T13:17:28;9;8;
46885;PMS5003;32622;48.202;11.326;2023-05-15T13:19:34;9;8;
46885;PMS5003;32622;48.202;11.326;2023-05-15T13:21:46;9;8;
46885;PMS5003;32622;48.202;11.326;2023-05-15T13:23:51;9;8;
46885;PMS5003;32622;48.202;11.326;2023-05-15T13:25:55;9;8;
46885;PMS5003;32622;48.202;11.326;2023-05-15T13:27:59;10;9;
46885;PMS5003;32622;48.202;11.326;2023-05-15T13:30:08;10;9;
46885;PMS5003;32622;48.202;11.326;2023-05-15T13:32:12;10;9;
46885;PMS5003;32622;48.202;11.326;2023-05-15T13:34:17;9;8;
46885;PMS5003;32622;48.202;11.326;2023-05-15T13:36:21;9;8;
46885;PMS5003;32622;48.202;11.326;2023-05-15T13:38:28;9;8;
46885;PMS5003;32622;48.202;11.326;2023-05-15T13:40:32;9;8;
46885;PMS5003;32622;48.202;11.326;2023-05-15T13:42:37;9;8;
46885;PMS5003;32622;48.202;11.326;2023-05-15T13:44:43;9;8;
46885;PMS5003;32622;48.202;11.326;2023-05-15T13:46:51;8;7;
46885;PMS5003;32622;48.202;11.326;2023-05-15T13:48:55;8;7;
46885;PMS5003;32622;48.202;11.326;2023-05-15T13:51:03;8;7;
46885;PMS5003;32622;48.202;11.326;2023-05-15T13:53:09;8;7;
46885;PMS5003;32622;48.202;11.326;2023-05-15T13:55:20;8;7;
46885;PMS5003;32622;48.202;11.326;2023-05-15T13:57:30;8;7;
46885;PMS5003;32622;48.202;11.326;2023-05-15T13:59:36;8;7;
46885;PMS5003;32622;48.202;11.326;2023-05-15T14:02:00;8;7;
46885;PMS5003;32622;48.202;11.326;2023-05-15T14:07:12;8;8;
46885;PMS5003;32622;48.202;11.326;2023-05-15T14:09:29;8;8;
46885;PMS5003;32622;48.202;11.326;2023-05-15T14:11:43;8;8;
46885;PMS5003;32622;48.202;11.326;2023-05-15T14:13:48;8;8;
46885;PMS5003;32622;48.202;11.326;2023-05-15T14:15:55;8;8;
46885;PMS5003;32622;48.202;11.326;2023-05-15T14:18:05;8;8;
46885;PMS5003;32622;48.202;11.326;2023-05-15T14:23:05;8;8;
46885;PMS5003;32622;48.202;11.326;2023-05-15T14:25:22;8;7;
46885;PMS5003;32622;48.202;11.326;2023-05-15T14:31:12;9;6;
46885;PMS5003;32622;48.202;11.326;2023-05-15T14:35:12;9;6;
46885;PMS5003;32622;48.202;11.326;2023-05-15T14:38:14;9;6;
46885;PMS5003;32622;48.202;11.326;2023-05-15T14:45:46;6;6;
46885;PMS5003;32622;48.202;11.326;2023-05-15T14:47:52;6;6;
46885;PMS5003;32622;48.202;11.326;2023-05-15T15:34:43;6;6;
46885;PMS5003;32622;48.202;11.326;2023-05-15T15:36:49;5;5;
46885;PMS5003;32622;48.202;11.326;2023-05-15T15:39:05;5;5;
46885;PMS5003;32622;48.202;11.326;2023-05-15T15:41:10;5;5;
46885;PMS5003;32622;48.202;11.326;2023-05-15T15:43:13;5;5;
46885;PMS5003;32622;48.202;11.326;2023-05-15T15:45:17;6;6;
46885;PMS5003;32622;48.202;11.326;2023-05-15T15:47:20;6;6;
46885;PMS5003;32622;48.202;11.326;2023-05-15T15:49:30;6;6;
46885;PMS5003;32622;48.202;11.326;2023-05-15T15:51:39;6;6;
46885;PMS5003;32622;48.202;11.326;2023-05-15T15:56:25;6;6;
46885;PMS5003;32622;48.202;11.326;2023-05-15T15:58:33;6;6;
46885;PMS5003;32622;48.202;11.326;2023-05-15T16:00:51;6;6;
46885;PMS5003;32622;48.202;11.326;2023-05-15T16:36:19;35;31;
46885;PMS5003;32622;48.202;11.326;2023-05-15T16:40:28;34;30;
46885;PMS5003;32622;48.202;11.326;2023-05-15T16:42:37;34;30;
46885;PMS5003;32622;48.202;11.326;2023-05-15T16:44:43;34;29;
46885;PMS5003;32622;48.202;11.326;2023-05-15T16:46:48;34;29;
46885;PMS5003;32622;48.202;11.326;2023-05-15T16:48:58;34;29;
46885;PMS5003;32622;48.202;11.326;2023-05-15T16:51:04;33;29;
46885;PMS5003;32622;48.202;11.326;2023-05-15T16:53:23;33;29;
46885;PMS5003;32622;48.202;11.326;2023-05-15T16:55:27;33;29;
46885;PMS5003;32622;48.202;11.326;2023-05-15T16:57:37;31;27;
46885;PMS5003;32622;48.202;11.326;2023-05-15T16:59:48;31;27;
46885;PMS5003;32622;48.202;11.326;2023-05-15T17:01:55;31;27;
46885;PMS5003;32622;48.202;11.326;2023-05-15T17:04:02;29;27;
46885;PMS5003;32622;48.202;11.326;2023-05-15T17:08:51;29;27;
46885;PMS5003;32622;48.202;11.326;2023-05-15T17:12:07;29;27;
46885;PMS5003;32622;48.202;11.326;2023-05-15T17:14:52;29;27;
46885;PMS5003;32622;48.202;11.326;2023-05-15T17:16:57;30;27;
46885;PMS5003;32622;48.202;11.326;2023-05-15T17:19:06;30;27;
46885;PMS5003;32622;48.202;11.326;2023-05-15T17:25:58;33;30;
46885;PMS5003;32622;48.202;11.326;2023-05-15T17:28:03;33;30;
46885;PMS5003;32622;48.202;11.326;2023-05-15T17:30:15;31;29;
46885;PMS5003;32622;48.202;11.326;2023-05-15T17:32:20;33;30;
46885;PMS5003;32622;48.202;11.326;2023-05-15T17:34:25;30;29;
46885;PMS5003;32622;48.202;11.326;2023-05-15T17:36:29;31;29;
46885;PMS5003;32622;48.202;11.326;2023-05-15T17:38:33;31;29;
46885;PMS5003;32622;48.202;11.326;2023-05-15T17:40:39;33;29;
46885;PMS5003;32622;48.202;11.326;2023-05-15T17:42:42;33;29;
46885;PMS5003;32622;48.202;11.326;2023-05-15T17:44:55;33;29;
46885;PMS5003;32622;48.202;11.326;2023-05-15T17:47:00;34;30;
46885;PMS5003;32622;48.202;11.326;2023-05-15T17:49:09;34;30;
46885;PMS5003;32622;48.202;11.326;2023-05-15T17:51:19;34;30;
46885;PMS5003;32622;48.202;11.326;2023-05-15T17:53:25;35;30;
46885;PMS5003;32622;48.202;11.326;2023-05-15T17:55:30;35;30;
46885;PMS5003;32622;48.202;11.326;2023-05-15T17:57:36;35;30;
46885;PMS5003;32622;48.202;11.326;2023-05-15T17:59:44;35;30;
46885;PMS5003;32622;48.202;11.326;2023-05-15T18:01:48;35;30;
46885;PMS5003;32622;48.202;11.326;2023-05-15T18:03:52;35;30;
46885;PMS5003;32622;48.202;11.326;2023-05-15T18:05:59;35;29;
46885;PMS5003;32622;48.202;11.326;2023-05-15T18:08:03;35;29;
46885;PMS5003;32622;48.202;11.326;2023-05-15T18:10:07;35;29;
46885;PMS5003;32622;48.202;11.326;2023-05-15T18:12:11;38;30;
46885;PMS5003;32622;48.202;11.326;2023-05-15T18:14:15;38;30;
46885;PMS5003;32622;48.202;11.326;2023-05-15T18:16:19;38;30;
46885;PMS5003;32622;48.202;11.326;2023-05-15T18:18:23;36;29;
46885;PMS5003;32622;48.202;11.326;2023-05-15T18:20:27;36;29;
46885;PMS5003;32622;48.202;11.326;2023-05-15T18:22:31;36;29;
46885;PMS5003;32622;48.202;11.326;2023-05-15T18:24:36;37;31;
46885;PMS5003;32622;48.202;11.326;2023-05-15T18:26:40;37;31;
46885;PMS5003;32622;48.202;11.326;2023-05-15T18:28:44;37;31;
46885;PMS5003;32622;48.202;11.326;2023-05-15T18:30:48;38;30;
46885;PMS5003;32622;48.202;11.326;2023-05-15T18:32:53;38;30;
46885;PMS5003;32622;48.202;11.326;2023-05-15T18:34:58;38;30;
46885;PMS5003;32622;48.202;11.326;2023-05-15T18:37:02;38;30;
46885;PMS5003;32622;48.202;11.326;2023-05-15T18:39:06;38;30;
46885;PMS5003;32622;48.202;11.326;2023-05-15T18:41:10;38;30;
46885;PMS5003;32622;48.202;11.326;2023-05-15T18:43:14;34;29;
46885;PMS5003;32622;48.202;11.326;2023-05-15T18:45:17;34;29;
46885;PMS5003;32622;48.202;11.326;2023-05-15T18:47:21;34;29;
46885;PMS5003;32622;48.202;11.326;2023-05-15T18:49:25;34;30;
46885;PMS5003;32622;48.202;11.326;2023-05-15T18:51:31;34;30;
46885;PMS5003;32622;48.202;11.326;2023-05-15T18:53:35;34;30;
46885;PMS5003;32622;48.202;11.326;2023-05-15T18:55:38;35;30;
46885;PMS5003;32622;48.202;11.326;2023-05-15T18:57:42;35;30;
46885;PMS5003;32622;48.202;11.326;2023-05-15T18:59:45;35;30;
46885;PMS5003;32622;48.202;11.326;2023-05-15T19:01:49;33;30;
46885;PMS5003;32622;48.202;11.326;2023-05-15T19:03:52;33;30;
46885;PMS5003;32622;48.202;11.326;2023-05-15T19:05:56;33;30;
46885;PMS5003;32622;48.202;11.326;2023-05-15T19:08:02;33;30;
46885;PMS5003;32622;48.202;11.326;2023-05-15T19:10:06;33;30;
46885;PMS5003;32622;48.202;11.326;2023-05-15T19:12:10;33;30;
46885;PMS5003;32622;48.202;11.326;2023-05-15T19:14:15;30;28;
46885;PMS5003;32622;48.202;11.326;2023-05-15T19:16:19;30;28;
46885;PMS5003;32622;48.202;11.326;2023-05-15T19:18:24;30;28;
46885;PMS5003;32622;48.202;11.326;2023-05-15T19:20:31;31;29;
46885;PMS5003;32622;48.202;11.326;2023-05-15T19:22:38;31;29;
46885;PMS5003;32622;48.202;11.326;2023-05-15T19:24:41;31;29;
46885;PMS5003;32622;48.202;11.326;2023-05-15T19:26:46;30;28;
46885;PMS5003;32622;48.202;11.326;2023-05-15T19:28:50;30;28;
46885;PMS5003;32622;48.202;11.326;2023-05-15T19:30:55;30;28;
46885;PMS5003;32622;48.202;11.326;2023-05-15T19:32:59;30;29;
46885;PMS5003;32622;48.202;11.326;2023-05-15T19:35:12;30;29;
46885;PMS5003;32622;48.202;11.326;2023-05-15T19:37:22;30;29;
46885;PMS5003;32622;48.202;11.326;2023-05-15T19:39:27;30;29;
46885;PMS5003;32622;48.202;11.326;2023-05-15T19:41:32;30;29;
46885;PMS5003;32622;48.202;11.326;2023-05-15T19:43:35;30;29;
46885;PMS5003;32622;48.202;11.326;2023-05-15T19:45:41;33;31;
46885;PMS5003;32622;48.202;11.326;2023-05-15T19:47:46;33;31;
46885;PMS5003;32622;48.202;11.326;2023-05-15T19:49:51;33;31;
46885;PMS5003;32622;48.202;11.326;2023-05-15T19:51:57;31;29;
46885;PMS5003;32622;48.202;11.326;2023-05-15T19:54:02;31;29;
46885;PMS5003;32622;48.202;11.326;2023-05-15T19:56:06;31;29;
46885;PMS5003;32622;48.202;11.326;2023-05-15T19:58:10;30;28;
46885;PMS5003;32622;48.202;11.326;2023-05-15T20:00:14;30;28;
46885;PMS5003;32622;48.202;11.326;2023-05-15T20:02:17;30;28;
46885;PMS5003;32622;48.202;11.326;2023-05-15T20:04:20;30;27;
46885;PMS5003;32622;48.202;11.326;2023-05-15T20:06:24;30;27;
46885;PMS5003;32622;48.202;11.326;2023-05-15T20:08:29;30;27;
46885;PMS5003;32622;48.202;11.326;2023-05-15T20:10:32;30;26;
46885;PMS5003;32622;48.202;11.326;2023-05-15T20:12:45;30;26;
46885;PMS5003;32622;48.202;11.326;2023-05-15T20:14:53;30;26;
46885;PMS5003;32622;48.202;11.326;2023-05-15T20:16:57;31;28;
46885;PMS5003;32622;48.202;11.326;2023-05-15T20:19:00;31;28;
46885;PMS5003;32622;48.202;11.326;2023-05-15T20:21:03;31;28;
46885;PMS5003;32622;48.202;11.326;2023-05-15T20:23:07;31;28;
46885;PMS5003;32622;48.202;11.326;2023-05-15T20:25:10;31;28;
46885;PMS5003;32622;48.202;11.326;2023-05-15T20:27:14;31;28;
46885;PMS5003;32622;48.202;11.326;2023-05-15T20:29:17;30;27;
46885;PMS5003;32622;48.202;11.326;2023-05-15T20:31:20;31;26;
46885;PMS5003;32622;48.202;11.326;2023-05-15T20:33:24;32;26;
46885;PMS5003;32622;48.202;11.326;2023-05-15T20:35:29;30;26;
46885;PMS5003;32622;48.202;11.326;2023-05-15T20:37:33;32;27;
46885;PMS5003;32622;48.202;11.326;2023-05-15T20:39:36;33;27;
46885;PMS5003;32622;48.202;11.326;2023-05-15T20:41:40;33;27;
46885;PMS5003;32622;48.202;11.326;2023-05-15T20:43:44;34;30;
46885;PMS5003;32622;48.202;11.326;2023-05-15T20:45:46;32;27;